Strona główna
METAR-TAF:

METAR-TAF

Lotnisko :

Colmar, Francja

Szerokość geograficzna: 48-06-37N, Długość geograficzna: 7-21-33E, wysokość: 191 m

Aktualna obserwacja pogody

Raport powstał 40 minut temu, godzina 03:00 UTC
Wiatr 3 kt od południowy zachód, zmienny między południe i zachód
Temperatura 12°C
Wilgotność 88%
Ciśnienie 1018 hPa
Widzialność 10 km lub więcej
Brak chmur poniżej 1500 m i brak chmur cumulonimbus

METAR: LFGA 240300Z AUTO 23003KT 170V270 CAVOK 12/10 Q1018

czas: 05:40 (03:40 UTC)


TAF: brakujący

Obserwacja i prognoza pogody dla ponad 4000 lotnisk (raport METAR i TAF).

Dostępne stacje oznaczono żółtymi i czerwonymi punktami na mapie.

Najedź kursorem aby zobaczyć nazwę stacji.

Kliknij aby zobaczyć obserwacje i prognozy pogody.

Aby zmienić mapę: kliknij na zielony przycisk z czarnym krzyżykiem, aby powiększyć; na zielony przycisk z myślnikiem, aby pomniejszyć; na zielone strzałki, aby przejść do map sąsiednich.


METAR-TAF: